Decoded Metar for EPZG (ZIELONA GORA in POLAND) (IATA:IEG) | Meteo·Mobile Aviation Weather
aviador You're here:

EPZG Decoded Metar

ZIELONA GORA in POLAND
Report Time2019-03-23 08:30:00
UTC Time2019-03-23 08:57:39
Flight Rules mvfr MVFR
Wind150° at 05 kt
W.Decomp.*RWY 06: 0.3 kt HW 5.0 kt RCW
W.Rank150° ranks 30
Current wind is below 150° avg. (5.2)
Visibility5000 m
Phenomena:Mist
Clouds:N/A
Expected CloudBase > 800 ft AGL from Temp-Dew spread
CeilingNone
Temp10°C (ISA -5)
Dew Point08°C (88% RH)
AAT7.8°C
QNH1026 hPa
Density Alt-653 ft
Elevation194 ft
Report Wrong Elevation
Raw Report
METAR EPZG 230830Z 15005KT 130V190 5000 BR NSC 10/08 Q1026 =

Extra information for EPZG:More info

Metar Taf Metar & Taf Last 4 Metars F.Rules Stats Wind Profile Meteogram Temp Stats Airport Information Weather charts Add Link Nearby VenuesMetar ALERT Operation Metar Decoded Social comments